sensor_id;sensor_type;location;lat;lon;timestamp;pressure;altitude;pressure_sealevel;temperature;humidity
57056;BME280;42945;51.718;5.324;2023-06-26T00:01:17;100915.81;;;22.58;100.00
57056;BME280;42945;51.718;5.324;2023-06-26T00:03:46;100955.69;;;22.56;100.00
57056;BME280;42945;51.718;5.324;2023-06-26T00:06:12;100951.25;;;22.39;100.00
57056;BME280;42945;51.718;5.324;2023-06-26T00:08:38;100927.41;;;22.34;100.00
57056;BME280;42945;51.718;5.324;2023-06-26T00:11:03;100903.03;;;22.18;100.00
57056;BME280;42945;51.718;5.324;2023-06-26T00:13:28;100856.47;;;21.55;100.00
57056;BME280;42945;51.718;5.324;2023-06-26T00:15:54;100841.41;;;21.45;100.00
57056;BME280;42945;51.718;5.324;2023-06-26T00:18:20;100865.91;;;21.33;100.00
57056;BME280;42945;51.718;5.324;2023-06-26T00:20:45;100943.41;;;21.93;100.00
57056;BME280;42945;51.718;5.324;2023-06-26T00:23:12;100770.03;;;21.13;100.00
57056;BME280;42945;51.718;5.324;2023-06-26T00:25:38;100941.88;;;21.91;100.00
57056;BME280;42945;51.718;5.324;2023-06-26T00:28:03;100953.63;;;21.81;100.00
57056;BME280;42945;51.718;5.324;2023-06-26T00:30:29;100816.84;;;21.03;100.00
57056;BME280;42945;51.718;5.324;2023-06-26T00:32:54;100923.94;;;21.55;100.00
57056;BME280;42945;51.718;5.324;2023-06-26T00:35:19;100937.84;;;21.69;100.00
57056;BME280;42945;51.718;5.324;2023-06-26T00:37:45;100903.38;;;21.54;100.00
57056;BME280;42945;51.718;5.324;2023-06-26T00:40:10;100948.47;;;21.44;100.00
57056;BME280;42945;51.718;5.324;2023-06-26T00:42:35;100820.06;;;20.89;100.00
57056;BME280;42945;51.718;5.324;2023-06-26T00:45:01;100965.28;;;21.56;100.00
57056;BME280;42945;51.718;5.324;2023-06-26T00:47:26;101156.56;;;22.83;100.00
57056;BME280;42945;51.718;5.324;2023-06-26T00:49:54;100910.59;;;21.54;100.00
57056;BME280;42945;51.718;5.324;2023-06-26T00:52:20;100978.53;;;21.49;100.00
57056;BME280;42945;51.718;5.324;2023-06-26T00:54:45;100962.69;;;21.46;100.00
57056;BME280;42945;51.718;5.324;2023-06-26T00:57:11;100952.28;;;21.41;100.00
57056;BME280;42945;51.718;5.324;2023-06-26T00:59:36;100960.47;;;21.32;100.00
57056;BME280;42945;51.718;5.324;2023-06-26T01:02:02;100971.91;;;21.26;100.00
57056;BME280;42945;51.718;5.324;2023-06-26T01:04:27;100866.56;;;20.55;100.00
57056;BME280;42945;51.718;5.324;2023-06-26T01:06:57;100965.50;;;21.09;100.00
57056;BME280;42945;51.718;5.324;2023-06-26T01:09:23;100853.31;;;20.44;100.00
57056;BME280;42945;51.718;5.324;2023-06-26T01:11:49;100995.22;;;20.99;100.00
57056;BME280;42945;51.718;5.324;2023-06-26T01:14:15;100999.72;;;20.90;100.00
57056;BME280;42945;51.718;5.324;2023-06-26T01:16:41;100974.19;;;20.84;100.00
57056;BME280;42945;51.718;5.324;2023-06-26T01:19:24;100993.41;;;20.72;100.00
57056;BME280;42945;51.718;5.324;2023-06-26T01:27:30;100905.25;;;19.61;100.00
57056;BME280;42945;51.718;5.324;2023-06-26T01:30:00;100988.69;;;20.18;100.00
57056;BME280;42945;51.718;5.324;2023-06-26T01:32:28;100765.47;;;18.85;100.00
57056;BME280;42945;51.718;5.324;2023-06-26T01:34:54;100971.59;;;20.00;100.00
57056;BME280;42945;51.718;5.324;2023-06-26T01:37:19;100957.44;;;19.98;100.00
57056;BME280;42945;51.718;5.324;2023-06-26T01:39:44;101003.91;;;20.00;100.00
57056;BME280;42945;51.718;5.324;2023-06-26T01:42:10;100970.78;;;19.90;100.00
57056;BME280;42945;51.718;5.324;2023-06-26T01:44:39;101059.63;;;19.80;100.00
57056;BME280;42945;51.718;5.324;2023-06-26T01:47:07;100989.78;;;19.78;100.00
57056;BME280;42945;51.718;5.324;2023-06-26T01:52:20;100981.03;;;19.57;100.00
57056;BME280;42945;51.718;5.324;2023-06-26T01:55:00;101018.94;;;19.54;100.00
57056;BME280;42945;51.718;5.324;2023-06-26T01:57:27;101005.25;;;19.47;100.00
57056;BME280;42945;51.718;5.324;2023-06-26T01:59:54;100950.75;;;19.45;100.00
57056;BME280;42945;51.718;5.324;2023-06-26T02:02:20;100624.47;;;19.44;100.00
57056;BME280;42945;51.718;5.324;2023-06-26T02:04:45;101026.44;;;19.40;100.00
57056;BME280;42945;51.718;5.324;2023-06-26T02:07:13;100887.91;;;18.68;100.00
57056;BME280;42945;51.718;5.324;2023-06-26T02:09:38;100907.84;;;18.65;100.00
57056;BME280;42945;51.718;5.324;2023-06-26T02:12:05;101039.63;;;19.14;100.00
57056;BME280;42945;51.718;5.324;2023-06-26T02:14:30;101028.16;;;19.12;100.00
57056;BME280;42945;51.718;5.324;2023-06-26T02:16:56;101029.84;;;19.13;100.00
57056;BME280;42945;51.718;5.324;2023-06-26T02:19:21;101021.63;;;19.15;100.00
57056;BME280;42945;51.718;5.324;2023-06-26T02:21:48;100927.13;;;18.30;100.00
57056;BME280;42945;51.718;5.324;2023-06-26T02:24:14;101018.66;;;18.98;100.00
57056;BME280;42945;51.718;5.324;2023-06-26T02:26:40;100800.59;;;17.63;100.00
57056;BME280;42945;51.718;5.324;2023-06-26T02:29:05;101021.91;;;18.92;100.00
57056;BME280;42945;51.718;5.324;2023-06-26T02:31:30;100901.91;;;18.12;100.00
57056;BME280;42945;51.718;5.324;2023-06-26T02:33:56;100914.75;;;18.08;100.00
57056;BME280;42945;51.718;5.324;2023-06-26T02:36:21;101061.22;;;18.93;100.00
57056;BME280;42945;51.718;5.324;2023-06-26T02:38:46;100927.44;;;18.06;100.00
57056;BME280;42945;51.718;5.324;2023-06-26T02:41:12;101023.91;;;18.59;100.00
57056;BME280;42945;51.718;5.324;2023-06-26T02:43:37;101081.19;;;18.69;100.00
57056;BME280;42945;51.718;5.324;2023-06-26T02:46:02;101096.81;;;18.85;100.00
57056;BME280;42945;51.718;5.324;2023-06-26T02:48:29;101071.69;;;18.65;100.00
57056;BME280;42945;51.718;5.324;2023-06-26T02:50:54;101071.28;;;18.70;100.00
57056;BME280;42945;51.718;5.324;2023-06-26T02:53:19;101007.31;;;17.93;100.00
57056;BME280;42945;51.718;5.324;2023-06-26T02:55:45;100962.81;;;17.90;100.00
57056;BME280;42945;51.718;5.324;2023-06-26T02:58:13;100984.16;;;17.92;100.00
57056;BME280;42945;51.718;5.324;2023-06-26T03:00:38;100943.22;;;17.89;100.00
57056;BME280;42945;51.718;5.324;2023-06-26T03:03:07;101063.19;;;18.60;100.00
57056;BME280;42945;51.718;5.324;2023-06-26T03:05:32;101036.25;;;18.41;100.00
57056;BME280;42945;51.718;5.324;2023-06-26T03:07:58;100884.94;;;17.80;100.00
57056;BME280;42945;51.718;5.324;2023-06-26T03:10:23;101112.91;;;18.55;100.00
57056;BME280;42945;51.718;5.324;2023-06-26T03:12:48;100969.06;;;17.79;100.00
57056;BME280;42945;51.718;5.324;2023-06-26T03:15:14;100972.44;;;17.93;100.00
57056;BME280;42945;51.718;5.324;2023-06-26T03:17:39;101003.38;;;17.97;100.00
57056;BME280;42945;51.718;5.324;2023-06-26T03:20:05;101080.81;;;18.53;100.00
57056;BME280;42945;51.718;5.324;2023-06-26T03:22:32;101082.06;;;18.49;100.00
57056;BME280;42945;51.718;5.324;2023-06-26T03:24:58;101088.63;;;18.56;100.00
57056;BME280;42945;51.718;5.324;2023-06-26T03:27:23;100920.41;;;17.21;100.00
57056;BME280;42945;51.718;5.324;2023-06-26T03:29:48;101065.00;;;18.50;100.00
57056;BME280;42945;51.718;5.324;2023-06-26T03:32:14;100778.03;;;18.65;100.00
57056;BME280;42945;51.718;5.324;2023-06-26T03:34:39;101094.00;;;18.56;100.00
57056;BME280;42945;51.718;5.324;2023-06-26T03:37:04;101112.06;;;18.54;100.00
57056;BME280;42945;51.718;5.324;2023-06-26T03:39:30;101091.84;;;18.50;100.00
57056;BME280;42945;51.718;5.324;2023-06-26T03:41:55;100899.25;;;17.39;100.00
57056;BME280;42945;51.718;5.324;2023-06-26T03:44:25;100918.59;;;17.42;100.00
57056;BME280;42945;51.718;5.324;2023-06-26T03:46:50;100981.03;;;17.86;100.00
57056;BME280;42945;51.718;5.324;2023-06-26T03:49:16;101062.44;;;18.48;100.00
57056;BME280;42945;51.718;5.324;2023-06-26T03:51:41;101129.44;;;18.50;100.00
57056;BME280;42945;51.718;5.324;2023-06-26T03:54:06;101004.03;;;17.89;100.00
57056;BME280;42945;51.718;5.324;2023-06-26T03:56:31;101103.38;;;18.41;100.00
57056;BME280;42945;51.718;5.324;2023-06-26T03:58:57;101114.44;;;18.47;100.00
57056;BME280;42945;51.718;5.324;2023-06-26T04:01:23;101064.09;;;18.40;100.00
57056;BME280;42945;51.718;5.324;2023-06-26T04:03:48;101076.06;;;18.36;100.00
57056;BME280;42945;51.718;5.324;2023-06-26T04:06:13;101116.75;;;18.31;100.00
57056;BME280;42945;51.718;5.324;2023-06-26T04:08:39;100773.94;;;18.41;100.00
57056;BME280;42945;51.718;5.324;2023-06-26T04:11:04;101140.97;;;18.41;100.00
57056;BME280;42945;51.718;5.324;2023-06-26T04:13:29;101169.25;;;18.45;100.00
57056;BME280;42945;51.718;5.324;2023-06-26T04:15:54;101160.19;;;18.57;100.00
57056;BME280;42945;51.718;5.324;2023-06-26T04:18:20;101156.41;;;18.69;100.00
57056;BME280;42945;51.718;5.324;2023-06-26T04:21:06;101150.81;;;18.82;100.00
57056;BME280;42945;51.718;5.324;2023-06-26T04:23:34;101183.53;;;18.87;100.00
57056;BME280;42945;51.718;5.324;2023-06-26T04:26:00;101129.06;;;18.85;100.00
57056;BME280;42945;51.718;5.324;2023-06-26T04:28:26;101183.88;;;18.94;100.00
57056;BME280;42945;51.718;5.324;2023-06-26T04:30:51;101227.03;;;18.60;100.00
57056;BME280;42945;51.718;5.324;2023-06-26T04:33:16;101048.94;;;18.08;100.00
57056;BME280;42945;51.718;5.324;2023-06-26T04:35:42;101133.22;;;18.47;100.00
57056;BME280;42945;51.718;5.324;2023-06-26T04:38:10;101166.47;;;18.46;100.00
57056;BME280;42945;51.718;5.324;2023-06-26T04:40:35;101144.38;;;18.43;100.00
57056;BME280;42945;51.718;5.324;2023-06-26T04:43:00;101241.47;;;19.01;100.00
57056;BME280;42945;51.718;5.324;2023-06-26T04:45:26;101170.09;;;18.45;100.00
57056;BME280;42945;51.718;5.324;2023-06-26T04:47:51;101181.56;;;18.68;100.00
57056;BME280;42945;51.718;5.324;2023-06-26T04:50:16;101208.97;;;18.62;100.00
57056;BME280;42945;51.718;5.324;2023-06-26T04:52:44;101194.16;;;18.68;100.00
57056;BME280;42945;51.718;5.324;2023-06-26T04:55:09;101066.69;;;17.99;100.00
57056;BME280;42945;51.718;5.324;2023-06-26T04:57:34;101054.19;;;17.77;100.00
57056;BME280;42945;51.718;5.324;2023-06-26T05:00:00;101182.09;;;18.41;100.00
57056;BME280;42945;51.718;5.324;2023-06-26T05:02:25;101194.22;;;18.36;100.00
57056;BME280;42945;51.718;5.324;2023-06-26T05:04:52;101183.09;;;18.40;100.00
57056;BME280;42945;51.718;5.324;2023-06-26T05:07:17;101204.72;;;18.60;100.00
57056;BME280;42945;51.718;5.324;2023-06-26T05:09:42;101224.03;;;18.75;100.00
57056;BME280;42945;51.718;5.324;2023-06-26T05:12:08;101209.56;;;18.87;100.00
57056;BME280;42945;51.718;5.324;2023-06-26T05:14:33;101118.84;;;18.27;100.00
57056;BME280;42945;51.718;5.324;2023-06-26T05:16:58;101212.88;;;19.00;100.00
57056;BME280;42945;51.718;5.324;2023-06-26T05:19:24;101223.19;;;18.95;100.00
57056;BME280;42945;51.718;5.324;2023-06-26T05:21:50;101111.38;;;18.31;100.00
57056;BME280;42945;51.718;5.324;2023-06-26T05:24:16;101149.28;;;19.20;100.00
57056;BME280;42945;51.718;5.324;2023-06-26T05:26:46;101197.13;;;19.26;100.00
57056;BME280;42945;51.718;5.324;2023-06-26T05:29:12;101169.81;;;19.21;100.00
57056;BME280;42945;51.718;5.324;2023-06-26T05:31:40;101217.06;;;19.14;100.00
57056;BME280;42945;51.718;5.324;2023-06-26T05:34:07;101074.56;;;18.74;100.00
57056;BME280;42945;51.718;5.324;2023-06-26T05:36:33;101241.28;;;19.24;100.00
57056;BME280;42945;51.718;5.324;2023-06-26T05:38:59;101178.97;;;19.09;100.00
57056;BME280;42945;51.718;5.324;2023-06-26T05:41:25;101259.50;;;19.51;100.00
57056;BME280;42945;51.718;5.324;2023-06-26T05:43:50;101202.19;;;19.10;100.00
57056;BME280;42945;51.718;5.324;2023-06-26T05:46:16;101221.97;;;19.09;100.00
57056;BME280;42945;51.718;5.324;2023-06-26T05:48:41;101112.94;;;19.26;100.00
57056;BME280;42945;51.718;5.324;2023-06-26T05:51:07;101205.94;;;19.89;100.00
57056;BME280;42945;51.718;5.324;2023-06-26T05:53:33;100970.00;;;18.51;100.00
57056;BME280;42945;51.718;5.324;2023-06-26T05:55:58;101257.72;;;19.71;100.00
57056;BME280;42945;51.718;5.324;2023-06-26T05:58:25;101203.16;;;19.50;100.00
57056;BME280;42945;51.718;5.324;2023-06-26T06:00:55;101252.41;;;19.50;100.00
57056;BME280;42945;51.718;5.324;2023-06-26T06:03:20;101126.31;;;18.76;100.00
57056;BME280;42945;51.718;5.324;2023-06-26T06:05:46;101136.91;;;18.98;100.00
57056;BME280;42945;51.718;5.324;2023-06-26T06:08:11;101242.25;;;19.63;100.00
57056;BME280;42945;51.718;5.324;2023-06-26T06:10:36;101171.53;;;19.32;100.00
57056;BME280;42945;51.718;5.324;2023-06-26T06:13:02;101144.22;;;18.86;100.00
57056;BME280;42945;51.718;5.324;2023-06-26T06:15:27;101291.50;;;19.85;100.00
57056;BME280;42945;51.718;5.324;2023-06-26T06:17:53;101130.06;;;19.35;100.00
57056;BME280;42945;51.718;5.324;2023-06-26T06:20:18;101257.97;;;20.09;100.00
57056;BME280;42945;51.718;5.324;2023-06-26T06:22:45;101284.22;;;20.26;100.00
57056;BME280;42945;51.718;5.324;2023-06-26T06:25:10;101245.06;;;20.22;100.00
57056;BME280;42945;51.718;5.324;2023-06-26T06:27:36;101215.88;;;20.17;100.00
57056;BME280;42945;51.718;5.324;2023-06-26T06:30:02;101200.16;;;20.13;100.00
57056;BME280;42945;51.718;5.324;2023-06-26T06:32:28;101252.44;;;20.10;100.00
57056;BME280;42945;51.718;5.324;2023-06-26T06:34:53;101539.94;;;22.44;100.00
57056;BME280;42945;51.718;5.324;2023-06-26T06:37:18;101242.94;;;20.45;100.00
57056;BME280;42945;51.718;5.324;2023-06-26T06:39:44;101201.56;;;19.97;100.00
57056;BME280;42945;51.718;5.324;2023-06-26T06:42:09;101251.88;;;20.45;100.00
57056;BME280;42945;51.718;5.324;2023-06-26T06:44:34;101247.19;;;20.57;100.00
57056;BME280;42945;51.718;5.324;2023-06-26T06:47:00;101273.81;;;20.02;100.00
57056;BME280;42945;51.718;5.324;2023-06-26T06:49:25;101280.06;;;20.02;100.00
57056;BME280;42945;51.718;5.324;2023-06-26T06:51:51;101184.09;;;19.22;100.00
57056;BME280;42945;51.718;5.324;2023-06-26T06:54:16;101220.91;;;18.91;100.00
57056;BME280;42945;51.718;5.324;2023-06-26T06:56:42;101268.41;;;19.82;100.00
57056;BME280;42945;51.718;5.324;2023-06-26T06:59:08;101188.69;;;19.31;100.00
57056;BME280;42945;51.718;5.324;2023-06-26T07:01:34;101322.41;;;19.91;100.00
57056;BME280;42945;51.718;5.324;2023-06-26T07:04:00;101251.31;;;20.42;100.00
57056;BME280;42945;51.718;5.324;2023-06-26T07:06:25;101051.00;;;18.25;100.00
57056;BME280;42945;51.718;5.324;2023-06-26T07:08:51;101275.91;;;19.89;100.00
57056;BME280;42945;51.718;5.324;2023-06-26T07:11:16;101318.84;;;19.80;100.00
57056;BME280;42945;51.718;5.324;2023-06-26T07:13:42;101180.34;;;19.44;100.00
57056;BME280;42945;51.718;5.324;2023-06-26T07:16:07;101221.81;;;19.41;100.00
57056;BME280;42945;51.718;5.324;2023-06-26T07:18:38;101337.31;;;20.04;100.00
57056;BME280;42945;51.718;5.324;2023-06-26T07:21:04;101296.47;;;19.90;100.00
57056;BME280;42945;51.718;5.324;2023-06-26T07:23:29;101177.63;;;19.34;100.00
57056;BME280;42945;51.718;5.324;2023-06-26T07:25:55;101351.97;;;19.81;100.00
57056;BME280;42945;51.718;5.324;2023-06-26T07:28:20;101202.41;;;18.97;100.00
57056;BME280;42945;51.718;5.324;2023-06-26T07:30:46;101216.41;;;19.32;100.00
57056;BME280;42945;51.718;5.324;2023-06-26T07:33:11;101207.53;;;20.01;100.00
57056;BME280;42945;51.718;5.324;2023-06-26T07:35:36;101307.91;;;20.42;100.00
57056;BME280;42945;51.718;5.324;2023-06-26T07:38:02;101360.75;;;20.23;100.00
57056;BME280;42945;51.718;5.324;2023-06-26T07:40:27;101328.88;;;20.48;100.00
57056;BME280;42945;51.718;5.324;2023-06-26T07:42:53;101269.03;;;20.25;100.00
57056;BME280;42945;51.718;5.324;2023-06-26T07:45:19;101360.84;;;20.12;100.00
57056;BME280;42945;51.718;5.324;2023-06-26T07:47:45;101395.25;;;19.89;100.00
57056;BME280;42945;51.718;5.324;2023-06-26T07:50:10;101387.88;;;20.51;100.00
57056;BME280;42945;51.718;5.324;2023-06-26T07:52:36;101245.06;;;19.52;100.00
57056;BME280;42945;51.718;5.324;2023-06-26T07:55:01;101366.44;;;20.40;100.00
57056;BME280;42945;51.718;5.324;2023-06-26T07:57:29;101362.38;;;19.95;100.00
57056;BME280;42945;51.718;5.324;2023-06-26T07:59:55;101401.53;;;20.09;100.00
57056;BME280;42945;51.718;5.324;2023-06-26T08:02:21;101408.31;;;20.54;100.00
57056;BME280;42945;51.718;5.324;2023-06-26T08:04:46;101321.22;;;20.53;100.00
57056;BME280;42945;51.718;5.324;2023-06-26T08:07:11;101266.47;;;19.63;100.00
57056;BME280;42945;51.718;5.324;2023-06-26T08:09:38;101253.72;;;20.06;100.00
57056;BME280;42945;51.718;5.324;2023-06-26T08:12:04;101366.59;;;20.38;100.00
57056;BME280;42945;51.718;5.324;2023-06-26T08:14:30;101382.03;;;20.36;100.00
57056;BME280;42945;51.718;5.324;2023-06-26T08:16:56;101350.47;;;20.87;100.00
57056;BME280;42945;51.718;5.324;2023-06-26T08:19:22;101385.66;;;20.76;100.00
57056;BME280;42945;51.718;5.324;2023-06-26T08:21:47;101399.47;;;20.32;100.00
57056;BME280;42945;51.718;5.324;2023-06-26T08:24:13;101391.13;;;20.55;100.00
57056;BME280;42945;51.718;5.324;2023-06-26T08:26:41;101356.38;;;20.32;100.00
57056;BME280;42945;51.718;5.324;2023-06-26T08:29:06;101383.53;;;20.70;100.00
57056;BME280;42945;51.718;5.324;2023-06-26T08:31:35;101256.00;;;20.40;100.00
57056;BME280;42945;51.718;5.324;2023-06-26T08:34:02;101346.16;;;21.23;100.00
57056;BME280;42945;51.718;5.324;2023-06-26T08:36:27;101275.81;;;20.00;100.00
57056;BME280;42945;51.718;5.324;2023-06-26T08:38:53;101248.72;;;19.41;100.00
57056;BME280;42945;51.718;5.324;2023-06-26T08:41:18;101364.78;;;20.68;100.00
57056;BME280;42945;51.718;5.324;2023-06-26T08:43:44;101132.09;;;18.92;100.00
57056;BME280;42945;51.718;5.324;2023-06-26T08:46:09;101379.03;;;20.30;100.00
57056;BME280;42945;51.718;5.324;2023-06-26T08:48:35;101342.66;;;20.64;100.00
57056;BME280;42945;51.718;5.324;2023-06-26T08:51:16;101277.94;;;20.16;100.00
57056;BME280;42945;51.718;5.324;2023-06-26T08:53:49;101392.25;;;21.40;100.00
57056;BME280;42945;51.718;5.324;2023-06-26T08:56:17;101271.72;;;20.25;100.00
57056;BME280;42945;51.718;5.324;2023-06-26T08:58:44;101484.56;;;21.63;100.00
57056;BME280;42945;51.718;5.324;2023-06-26T09:01:10;101387.94;;;20.61;100.00
57056;BME280;42945;51.718;5.324;2023-06-26T09:03:36;101327.44;;;20.34;100.00
57056;BME280;42945;51.718;5.324;2023-06-26T09:06:02;101450.06;;;21.18;100.00
57056;BME280;42945;51.718;5.324;2023-06-26T09:08:27;101418.28;;;20.92;100.00
57056;BME280;42945;51.718;5.324;2023-06-26T09:10:53;101320.72;;;19.90;100.00
57056;BME280;42945;51.718;5.324;2023-06-26T09:13:19;101386.91;;;20.91;100.00
57056;BME280;42945;51.718;5.324;2023-06-26T09:15:45;101434.03;;;21.16;100.00
57056;BME280;42945;51.718;5.324;2023-06-26T09:18:11;101470.50;;;21.11;0.00
57056;BME280;42945;51.718;5.324;2023-06-26T09:20:37;101427.47;;;20.60;100.00
57056;BME280;42945;51.718;5.324;2023-06-26T09:23:03;101335.88;;;20.00;100.00
57056;BME280;42945;51.718;5.324;2023-06-26T09:25:28;101484.13;;;21.19;100.00
57056;BME280;42945;51.718;5.324;2023-06-26T09:27:55;101454.88;;;21.34;100.00
57056;BME280;42945;51.718;5.324;2023-06-26T09:30:22;101465.53;;;21.35;100.00
57056;BME280;42945;51.718;5.324;2023-06-26T09:32:48;101431.03;;;21.39;100.00
57056;BME280;42945;51.718;5.324;2023-06-26T09:35:14;101386.47;;;21.25;100.00
57056;BME280;42945;51.718;5.324;2023-06-26T09:37:40;101338.38;;;20.33;100.00
57056;BME280;42945;51.718;5.324;2023-06-26T09:40:05;101549.91;;;22.43;99.75
57056;BME280;42945;51.718;5.324;2023-06-26T09:42:31;101427.59;;;20.59;97.40
57056;BME280;42945;51.718;5.324;2023-06-26T09:44:57;101416.56;;;21.20;100.00
57056;BME280;42945;51.718;5.324;2023-06-26T09:47:23;101436.47;;;21.10;100.00
57056;BME280;42945;51.718;5.324;2023-06-26T09:49:48;101490.97;;;21.03;100.00
57056;BME280;42945;51.718;5.324;2023-06-26T09:52:15;101412.13;;;20.51;100.00
57056;BME280;42945;51.718;5.324;2023-06-26T09:54:45;101417.59;;;21.10;100.00
57056;BME280;42945;51.718;5.324;2023-06-26T09:57:18;101382.66;;;21.18;100.00
57056;BME280;42945;51.718;5.324;2023-06-26T09:59:44;101445.09;;;21.52;100.00
57056;BME280;42945;51.718;5.324;2023-06-26T10:02:11;101470.50;;;21.30;100.00
57056;BME280;42945;51.718;5.324;2023-06-26T10:04:37;101461.38;;;21.70;100.00
57056;BME280;42945;51.718;5.324;2023-06-26T10:07:08;101468.50;;;21.42;100.00
57056;BME280;42945;51.718;5.324;2023-06-26T10:09:38;101441.69;;;21.97;100.00
57056;BME280;42945;51.718;5.324;2023-06-26T10:12:20;101434.91;;;21.46;100.00
57056;BME280;42945;51.718;5.324;2023-06-26T10:14:48;101453.31;;;21.60;100.00
57056;BME280;42945;51.718;5.324;2023-06-26T10:17:17;101315.22;;;21.08;96.01
57056;BME280;42945;51.718;5.324;2023-06-26T10:19:45;101255.88;;;20.41;90.02
57056;BME280;42945;51.718;5.324;2023-06-26T10:22:12;101474.25;;;22.23;89.62
57056;BME280;42945;51.718;5.324;2023-06-26T10:24:40;101443.50;;;21.59;87.20
57056;BME280;42945;51.718;5.324;2023-06-26T10:27:18;101476.19;;;22.69;82.28
57056;BME280;42945;51.718;5.324;2023-06-26T10:29:47;101449.28;;;21.74;80.49
57056;BME280;42945;51.718;5.324;2023-06-26T10:32:15;101449.34;;;21.35;77.92
57056;BME280;42945;51.718;5.324;2023-06-26T10:34:42;101483.16;;;22.06;77.43
57056;BME280;42945;51.718;5.324;2023-06-26T10:37:08;101463.03;;;22.56;76.56
57056;BME280;42945;51.718;5.324;2023-06-26T10:42:10;101477.31;;;22.11;75.04
57056;BME280;42945;51.718;5.324;2023-06-26T10:44:46;101391.75;;;21.74;71.62
57056;BME280;42945;51.718;5.324;2023-06-26T10:49:54;101490.31;;;21.97;72.59
57056;BME280;42945;51.718;5.324;2023-06-26T10:52:20;101482.25;;;22.25;73.29
57056;BME280;42945;51.718;5.324;2023-06-26T10:54:45;101493.84;;;21.98;75.37
57056;BME280;42945;51.718;5.324;2023-06-26T10:57:11;101471.09;;;22.66;74.86
57056;BME280;42945;51.718;5.324;2023-06-26T10:59:48;101506.47;;;22.07;85.42
57056;BME280;42945;51.718;5.324;2023-06-26T11:02:13;101491.88;;;22.65;83.30
57056;BME280;42945;51.718;5.324;2023-06-26T11:07:21;101486.22;;;22.31;80.91
57056;BME280;42945;51.718;5.324;2023-06-26T11:10:09;101491.19;;;22.35;82.18
57056;BME280;42945;51.718;5.324;2023-06-26T11:12:45;101495.97;;;22.69;77.12
57056;BME280;42945;51.718;5.324;2023-06-26T11:15:18;101791.78;;;24.96;75.40
57056;BME280;42945;51.718;5.324;2023-06-26T11:17:44;101488.22;;;22.29;77.88
57056;BME280;42945;51.718;5.324;2023-06-26T11:20:11;101373.88;;;20.96;86.09
57056;BME280;42945;51.718;5.324;2023-06-26T11:22:39;101388.75;;;21.10;85.63
57056;BME280;42945;51.718;5.324;2023-06-26T11:25:06;101126.75;;;21.05;93.09
57056;BME280;42945;51.718;5.324;2023-06-26T11:27:32;101512.69;;;21.21;99.62
57056;BME280;42945;51.718;5.324;2023-06-26T11:30:00;101522.91;;;21.18;99.33
57056;BME280;42945;51.718;5.324;2023-06-26T11:32:27;101877.72;;;23.69;91.00
57056;BME280;42945;51.718;5.324;2023-06-26T11:34:53;101528.25;;;20.79;88.92
57056;BME280;42945;51.718;5.324;2023-06-26T11:37:20;101515.06;;;20.95;93.02
57056;BME280;42945;51.718;5.324;2023-06-26T11:39:46;101421.84;;;20.23;97.55
57056;BME280;42945;51.718;5.324;2023-06-26T11:42:11;101591.94;;;21.69;92.23
57056;BME280;42945;51.718;5.324;2023-06-26T11:44:41;101536.97;;;21.31;94.73
57056;BME280;42945;51.718;5.324;2023-06-26T11:47:07;101563.53;;;21.75;90.01
57056;BME280;42945;51.718;5.324;2023-06-26T11:49:33;101706.69;;;22.33;88.76
57056;BME280;42945;51.718;5.324;2023-06-26T11:51:58;101548.91;;;21.77;90.62
57056;BME280;42945;51.718;5.324;2023-06-26T11:54:26;101529.00;;;21.69;88.70
57056;BME280;42945;51.718;5.324;2023-06-26T11:56:55;129170.38;;;189.57;99.11
57056;BME280;42945;51.718;5.324;2023-06-26T11:59:24;101523.91;;;21.75;86.30
57056;BME280;42945;51.718;5.324;2023-06-26T12:01:59;101495.13;;;21.94;86.11
57056;BME280;42945;51.718;5.324;2023-06-26T12:04:25;101535.97;;;22.38;82.81
57056;BME280;42945;51.718;5.324;2023-06-26T12:06:52;101541.00;;;22.60;84.59
57056;BME280;42945;51.718;5.324;2023-06-26T12:09:22;101557.91;;;22.90;81.32
57056;BME280;42945;51.718;5.324;2023-06-26T12:11:50;101567.09;;;23.25;77.85
57056;BME280;42945;51.718;5.324;2023-06-26T12:14:20;101451.94;;;22.77;75.94
57056;BME280;42945;51.718;5.324;2023-06-26T12:16:47;101579.09;;;23.23;74.69
57056;BME280;42945;51.718;5.324;2023-06-26T12:19:13;101460.25;;;23.11;76.50
57056;BME280;42945;51.718;5.324;2023-06-26T12:24:12;101562.59;;;23.16;71.58
57056;BME280;42945;51.718;5.324;2023-06-26T12:26:37;101569.75;;;22.52;68.82
57056;BME280;42945;51.718;5.324;2023-06-26T12:29:06;101559.19;;;23.68;70.05
57056;BME280;42945;51.718;5.324;2023-06-26T12:31:32;101483.44;;;21.56;70.04
57056;BME280;42945;51.718;5.324;2023-06-26T12:33:59;101548.63;;;22.93;67.81
57056;BME280;42945;51.718;5.324;2023-06-26T12:36:24;101606.84;;;23.43;65.56
57056;BME280;42945;51.718;5.324;2023-06-26T12:38:52;101552.72;;;23.43;66.51
57056;BME280;42945;51.718;5.324;2023-06-26T12:41:18;101704.44;;;24.23;63.80
57056;BME280;42945;51.718;5.324;2023-06-26T12:43:45;101389.84;;;23.03;64.90
57056;BME280;42945;51.718;5.324;2023-06-26T12:46:11;101576.53;;;23.39;59.84
57056;BME280;42945;51.718;5.324;2023-06-26T12:48:39;101596.84;;;23.61;62.28
57056;BME280;42945;51.718;5.324;2023-06-26T12:51:17;101606.53;;;23.00;57.65
57056;BME280;42945;51.718;5.324;2023-06-26T12:53:43;101509.69;;;22.58;61.05
57056;BME280;42945;51.718;5.324;2023-06-26T12:56:10;101513.13;;;23.06;62.01
57056;BME280;42945;51.718;5.324;2023-06-26T12:58:37;101474.47;;;22.68;59.01